Sebring, Ohio
Current Conditions -  °F | °C
As of 12:51 AM on Sunday 21 Dec 2014 (Local Time) from KCAK Reporting Station
Scattered Clouds Scattered Clouds  
Wind Chill: 26°   Ceiling: Unl
Heat Index: 26°   Visibility: 8mi
Dew Point: 21°   Wind: 0mph
Humidity: 81%   Direction: NA
Pressure: 30.24"   Gusts: NA
Location:  40.92°N, 81.02°W
Report Text: KCAK 210551Z 00000KT 8SM SCT029 SCT095 M03/M06 A3024 RMK AO2 SNE19 SLP257 P0000 60000 T10331061 11011 21033 58007
Loading
Personal Weather Stations






























Interactive Weather Map New forecast layout! Learn more

10-Day Weather Forecast

Advertisements
Track Severe Weather on mobile